Sign in

Advertise on goboko.com

You can reach many thousands of active pilots each month by advertising on goboko.com.

Please contact us for details.

Advertising

Info

Aviation weather - KJYO

METAR KJYO 221735Z AUTO 20006KT 10SM OVC046 28/22 A3016 RMK AO2

TAF KIAD 211140Z 2112/2218 11004KT P6SM BKN015 OVC050 FM211500 17007KT P6SM SCT025 BKN050 FM220500 VRB03KT P6SM BKN090 FM221200 17005KT P6SM SCT025 FM221500 17006KT P6SM SCT050

ADDS Experimental. Do not use for flight-related decisions.

Javascript required. Ce site nécessite javascript